sensor_id;sensor_type;location;lat;lon;timestamp;pressure;altitude;pressure_sealevel;temperature;humidity
48892;BME280;50130;52.150;5.236;2023-02-23T00:01:18;101135.0;;;9.49;100.0
48892;BME280;50130;52.150;5.236;2023-02-23T00:02:55;101134.0;;;9.43;100.0
48892;BME280;50130;52.150;5.236;2023-02-23T00:04:32;101131.0;;;9.42;100.0
48892;BME280;50130;52.150;5.236;2023-02-23T00:07:46;101139.0;;;9.39;100.0
48892;BME280;50130;52.150;5.236;2023-02-23T00:09:22;101138.0;;;9.39;100.0
48892;BME280;50130;52.150;5.236;2023-02-23T00:10:59;101141.0;;;9.39;100.0
48892;BME280;50130;52.150;5.236;2023-02-23T00:12:35;101136.0;;;9.43;100.0
48892;BME280;50130;52.150;5.236;2023-02-23T00:15:47;101135.0;;;9.42;100.0
48892;BME280;50130;52.150;5.236;2023-02-23T00:17:23;101136.0;;;9.48;100.0
48892;BME280;50130;52.150;5.236;2023-02-23T00:18:59;101133.0;;;9.42;100.0
48892;BME280;50130;52.150;5.236;2023-02-23T00:22:19;101136.0;;;9.42;100.0
48892;BME280;50130;52.150;5.236;2023-02-23T00:23:57;101132.0;;;9.39;100.0
48892;BME280;50130;52.150;5.236;2023-02-23T00:25:37;101134.0;;;9.41;100.0
48892;BME280;50130;52.150;5.236;2023-02-23T00:27:18;101133.0;;;9.39;100.0
48892;BME280;50130;52.150;5.236;2023-02-23T00:30:33;101132.0;;;9.36;100.0
48892;BME280;50130;52.150;5.236;2023-02-23T00:32:10;101137.0;;;9.31;100.0
48892;BME280;50130;52.150;5.236;2023-02-23T00:33:51;101133.0;;;9.31;100.0
48892;BME280;50130;52.150;5.236;2023-02-23T00:37:04;101128.0;;;9.3;100.0
48892;BME280;50130;52.150;5.236;2023-02-23T00:38:41;101130.0;;;9.28;100.0
48892;BME280;50130;52.150;5.236;2023-02-23T00:40:18;101127.0;;;9.28;100.0
48892;BME280;50130;52.150;5.236;2023-02-23T00:41:56;101128.0;;;9.39;100.0
48892;BME280;50130;52.150;5.236;2023-02-23T00:45:12;101130.0;;;9.38;100.0
48892;BME280;50130;52.150;5.236;2023-02-23T00:46:51;101130.0;;;9.33;100.0
48892;BME280;50130;52.150;5.236;2023-02-23T00:48:28;101130.0;;;9.31;100.0
48892;BME280;50130;52.150;5.236;2023-02-23T00:51:42;101127.0;;;9.27;100.0
48892;BME280;50130;52.150;5.236;2023-02-23T00:53:19;101127.0;;;9.4;100.0
48892;BME280;50130;52.150;5.236;2023-02-23T00:54:55;101124.0;;;9.31;100.0
48892;BME280;50130;52.150;5.236;2023-02-23T00:56:31;101125.0;;;9.31;100.0
48892;BME280;50130;52.150;5.236;2023-02-23T00:59:44;101125.0;;;9.33;100.0
48892;BME280;50130;52.150;5.236;2023-02-23T01:01:22;101124.0;;;9.32;100.0
48892;BME280;50130;52.150;5.236;2023-02-23T01:02:58;101127.0;;;9.3;100.0
48892;BME280;50130;52.150;5.236;2023-02-23T01:06:11;101125.0;;;9.38;100.0
48892;BME280;50130;52.150;5.236;2023-02-23T01:07:48;101126.0;;;9.4;100.0
48892;BME280;50130;52.150;5.236;2023-02-23T01:09:27;101125.0;;;9.31;100.0
48892;BME280;50130;52.150;5.236;2023-02-23T01:11:05;101126.0;;;9.22;100.0
48892;BME280;50130;52.150;5.236;2023-02-23T01:14:21;101128.0;;;9.19;100.0
48892;BME280;50130;52.150;5.236;2023-02-23T01:15:58;101121.0;;;9.23;100.0
48892;BME280;50130;52.150;5.236;2023-02-23T01:17:34;101127.0;;;9.18;100.0
48892;BME280;50130;52.150;5.236;2023-02-23T01:20:49;101127.0;;;9.21;100.0
48892;BME280;50130;52.150;5.236;2023-02-23T01:22:25;101132.0;;;9.21;100.0
48892;BME280;50130;52.150;5.236;2023-02-23T01:24:03;101125.0;;;9.26;100.0
48892;BME280;50130;52.150;5.236;2023-02-23T01:27:19;101133.0;;;9.17;100.0
48892;BME280;50130;52.150;5.236;2023-02-23T01:28:56;101130.0;;;9.14;100.0
48892;BME280;50130;52.150;5.236;2023-02-23T01:30:34;101127.0;;;9.16;100.0
48892;BME280;50130;52.150;5.236;2023-02-23T01:32:11;101131.0;;;9.19;100.0
48892;BME280;50130;52.150;5.236;2023-02-23T01:35:28;101132.0;;;9.14;100.0
48892;BME280;50130;52.150;5.236;2023-02-23T01:37:04;101132.0;;;9.16;100.0
48892;BME280;50130;52.150;5.236;2023-02-23T01:38:41;101131.0;;;9.24;100.0
48892;BME280;50130;52.150;5.236;2023-02-23T01:42:08;101128.0;;;9.21;100.0
48892;BME280;50130;52.150;5.236;2023-02-23T01:43:56;101128.0;;;9.14;100.0
48892;BME280;50130;52.150;5.236;2023-02-23T01:45:34;101123.0;;;9.14;100.0
48892;BME280;50130;52.150;5.236;2023-02-23T01:47:12;101127.0;;;9.14;100.0
48892;BME280;50130;52.150;5.236;2023-02-23T01:48:50;101127.0;;;9.14;100.0
48892;BME280;50130;52.150;5.236;2023-02-23T01:52:15;101124.0;;;9.14;100.0
48892;BME280;50130;52.150;5.236;2023-02-23T01:53:57;101128.0;;;9.14;100.0
48892;BME280;50130;52.150;5.236;2023-02-23T01:55:35;101124.0;;;9.24;100.0
48892;BME280;50130;52.150;5.236;2023-02-23T01:57:13;101126.0;;;9.19;100.0
48892;BME280;50130;52.150;5.236;2023-02-23T02:00:36;101134.0;;;9.23;100.0
48892;BME280;50130;52.150;5.236;2023-02-23T02:02:13;101134.0;;;9.18;100.0
48892;BME280;50130;52.150;5.236;2023-02-23T02:03:54;101133.0;;;9.15;100.0
48892;BME280;50130;52.150;5.236;2023-02-23T02:05:32;101128.0;;;9.15;100.0
48892;BME280;50130;52.150;5.236;2023-02-23T02:08:51;101135.0;;;9.22;100.0
48892;BME280;50130;52.150;5.236;2023-02-23T02:10:45;101134.0;;;9.16;100.0
48892;BME280;50130;52.150;5.236;2023-02-23T02:12:22;101136.0;;;9.15;100.0
48892;BME280;50130;52.150;5.236;2023-02-23T02:14:01;101132.0;;;9.24;100.0
48892;BME280;50130;52.150;5.236;2023-02-23T02:17:44;101139.0;;;9.18;100.0
48892;BME280;50130;52.150;5.236;2023-02-23T02:19:50;101138.0;;;9.09;100.0
48892;BME280;50130;52.150;5.236;2023-02-23T02:23:39;101146.0;;;9.15;100.0
48892;BME280;50130;52.150;5.236;2023-02-23T02:27:45;101143.0;;;9.24;100.0
48892;BME280;50130;52.150;5.236;2023-02-23T02:36:54;101140.0;;;9.14;100.0
48892;BME280;50130;52.150;5.236;2023-02-23T02:39:42;101141.0;;;9.15;100.0
48892;BME280;50130;52.150;5.236;2023-02-23T02:41:28;101136.0;;;9.16;100.0
48892;BME280;50130;52.150;5.236;2023-02-23T02:43:15;101139.0;;;9.18;100.0
48892;BME280;50130;52.150;5.236;2023-02-23T02:46:46;101136.0;;;9.1;100.0
48892;BME280;50130;52.150;5.236;2023-02-23T02:48:34;101133.0;;;9.16;100.0
48892;BME280;50130;52.150;5.236;2023-02-23T02:50:16;101132.0;;;9.17;100.0
48892;BME280;50130;52.150;5.236;2023-02-23T02:52:00;101134.0;;;9.21;100.0
48892;BME280;50130;52.150;5.236;2023-02-23T02:53:48;101136.0;;;9.23;100.0
48892;BME280;50130;52.150;5.236;2023-02-23T02:57:07;101133.0;;;9.17;100.0
48892;BME280;50130;52.150;5.236;2023-02-23T02:58:50;101135.0;;;9.14;100.0
48892;BME280;50130;52.150;5.236;2023-02-23T04:17:41;101162.0;;;8.93;100.0
48892;BME280;50130;52.150;5.236;2023-02-23T04:20:57;101165.0;;;8.98;100.0
48892;BME280;50130;52.150;5.236;2023-02-23T04:22:34;101161.0;;;8.98;100.0
48892;BME280;50130;52.150;5.236;2023-02-23T04:24:10;101167.0;;;8.94;100.0
48892;BME280;50130;52.150;5.236;2023-02-23T04:25:47;101169.0;;;8.94;100.0
48892;BME280;50130;52.150;5.236;2023-02-23T04:29:00;101170.0;;;8.98;100.0
48892;BME280;50130;52.150;5.236;2023-02-23T04:30:36;101169.0;;;8.93;100.0
48892;BME280;50130;52.150;5.236;2023-02-23T04:32:14;101163.0;;;8.98;100.0
48892;BME280;50130;52.150;5.236;2023-02-23T04:35:29;101169.0;;;8.93;100.0
48892;BME280;50130;52.150;5.236;2023-02-23T04:37:06;101171.0;;;8.97;100.0
48892;BME280;50130;52.150;5.236;2023-02-23T04:38:43;101175.0;;;9.0;100.0
48892;BME280;50130;52.150;5.236;2023-02-23T04:40:19;101174.0;;;9.09;100.0
48892;BME280;50130;52.150;5.236;2023-02-23T04:43:31;101176.0;;;9.24;100.0
48892;BME280;50130;52.150;5.236;2023-02-23T04:45:08;101176.0;;;9.23;100.0
48892;BME280;50130;52.150;5.236;2023-02-23T04:46:45;101178.0;;;9.23;100.0
48892;BME280;50130;52.150;5.236;2023-02-23T04:49:59;101180.0;;;9.24;100.0
48892;BME280;50130;52.150;5.236;2023-02-23T04:51:36;101182.0;;;9.15;100.0
48892;BME280;50130;52.150;5.236;2023-02-23T04:53:13;101185.0;;;9.11;100.0
48892;BME280;50130;52.150;5.236;2023-02-23T04:56:25;101183.0;;;9.14;100.0
48892;BME280;50130;52.150;5.236;2023-02-23T04:58:01;101186.0;;;9.07;100.0
48892;BME280;50130;52.150;5.236;2023-02-23T04:59:38;101189.0;;;9.08;100.0
48892;BME280;50130;52.150;5.236;2023-02-23T05:01:14;101183.0;;;9.27;100.0
48892;BME280;50130;52.150;5.236;2023-02-23T05:04:27;101189.0;;;9.22;100.0
48892;BME280;50130;52.150;5.236;2023-02-23T05:06:04;101190.0;;;9.23;100.0
48892;BME280;50130;52.150;5.236;2023-02-23T05:07:41;101190.0;;;9.15;100.0
48892;BME280;50130;52.150;5.236;2023-02-23T05:10:53;101192.0;;;9.27;100.0
48892;BME280;50130;52.150;5.236;2023-02-23T05:12:30;101192.0;;;9.42;100.0
48892;BME280;50130;52.150;5.236;2023-02-23T05:14:07;101191.0;;;9.23;100.0
48892;BME280;50130;52.150;5.236;2023-02-23T05:17:20;101195.0;;;9.17;100.0
48892;BME280;50130;52.150;5.236;2023-02-23T05:18:56;101195.0;;;9.19;100.0
48892;BME280;50130;52.150;5.236;2023-02-23T05:20:33;101196.0;;;9.21;100.0
48892;BME280;50130;52.150;5.236;2023-02-23T05:22:11;101194.0;;;9.25;100.0
48892;BME280;50130;52.150;5.236;2023-02-23T05:25:24;101197.0;;;9.3;100.0
48892;BME280;50130;52.150;5.236;2023-02-23T05:27:00;101201.0;;;9.46;100.0
48892;BME280;50130;52.150;5.236;2023-02-23T05:28:38;101203.0;;;9.32;100.0
48892;BME280;50130;52.150;5.236;2023-02-23T05:31:52;101203.0;;;9.33;100.0
48892;BME280;50130;52.150;5.236;2023-02-23T05:33:28;101205.0;;;9.39;100.0
48892;BME280;50130;52.150;5.236;2023-02-23T05:35:05;101209.0;;;9.31;100.0
48892;BME280;50130;52.150;5.236;2023-02-23T05:38:19;101209.0;;;9.26;100.0
48892;BME280;50130;52.150;5.236;2023-02-23T05:39:56;101212.0;;;9.27;100.0
48892;BME280;50130;52.150;5.236;2023-02-23T05:41:33;101212.0;;;9.39;100.0
48892;BME280;50130;52.150;5.236;2023-02-23T05:43:09;101214.0;;;9.5;100.0
48892;BME280;50130;52.150;5.236;2023-02-23T05:46:23;101217.0;;;9.32;100.0
48892;BME280;50130;52.150;5.236;2023-02-23T05:48:02;101209.0;;;9.19;100.0
48892;BME280;50130;52.150;5.236;2023-02-23T05:49:38;101213.0;;;9.16;100.0
48892;BME280;50130;52.150;5.236;2023-02-23T05:52:53;101208.0;;;9.09;100.0
48892;BME280;50130;52.150;5.236;2023-02-23T05:54:28;101214.0;;;9.1;100.0
48892;BME280;50130;52.150;5.236;2023-02-23T05:56:06;101213.0;;;9.19;100.0
48892;BME280;50130;52.150;5.236;2023-02-23T05:57:46;101210.0;;;9.18;100.0
48892;BME280;50130;52.150;5.236;2023-02-23T06:00:58;101213.0;;;9.15;100.0
48892;BME280;50130;52.150;5.236;2023-02-23T06:02:35;101215.0;;;9.06;100.0
48892;BME280;50130;52.150;5.236;2023-02-23T06:04:12;101211.0;;;9.32;100.0
48892;BME280;50130;52.150;5.236;2023-02-23T06:07:26;101220.0;;;9.25;100.0
48892;BME280;50130;52.150;5.236;2023-02-23T06:09:02;101219.0;;;9.18;100.0
48892;BME280;50130;52.150;5.236;2023-02-23T06:10:39;101223.0;;;9.18;100.0
48892;BME280;50130;52.150;5.236;2023-02-23T06:13:51;101224.0;;;9.08;100.0
48892;BME280;50130;52.150;5.236;2023-02-23T06:15:27;101224.0;;;9.08;100.0
48892;BME280;50130;52.150;5.236;2023-02-23T06:17:05;101219.0;;;9.03;100.0
48892;BME280;50130;52.150;5.236;2023-02-23T06:18:41;101224.0;;;8.99;100.0
48892;BME280;50130;52.150;5.236;2023-02-23T06:21:55;101221.0;;;9.05;100.0
48892;BME280;50130;52.150;5.236;2023-02-23T06:23:31;101225.0;;;9.05;100.0
48892;BME280;50130;52.150;5.236;2023-02-23T06:25:11;101223.0;;;8.97;100.0
48892;BME280;50130;52.150;5.236;2023-02-23T06:28:25;101228.0;;;9.06;100.0
48892;BME280;50130;52.150;5.236;2023-02-23T06:30:03;101230.0;;;9.01;100.0
48892;BME280;50130;52.150;5.236;2023-02-23T06:31:40;101236.0;;;9.0;100.0
48892;BME280;50130;52.150;5.236;2023-02-23T06:33:17;101234.0;;;9.18;100.0
48892;BME280;50130;52.150;5.236;2023-02-23T06:36:29;101240.0;;;9.27;100.0
48892;BME280;50130;52.150;5.236;2023-02-23T06:38:05;101238.0;;;9.25;100.0
48892;BME280;50130;52.150;5.236;2023-02-23T06:39:41;101245.0;;;9.08;100.0
48892;BME280;50130;52.150;5.236;2023-02-23T06:42:53;101244.0;;;9.16;100.0
48892;BME280;50130;52.150;5.236;2023-02-23T06:44:29;101249.0;;;9.03;100.0
48892;BME280;50130;52.150;5.236;2023-02-23T06:46:06;101252.0;;;9.09;100.0
48892;BME280;50130;52.150;5.236;2023-02-23T06:49:20;101255.0;;;9.08;100.0
48892;BME280;50130;52.150;5.236;2023-02-23T06:50:57;101262.0;;;9.13;100.0
48892;BME280;50130;52.150;5.236;2023-02-23T06:52:33;101259.0;;;9.1;100.0
48892;BME280;50130;52.150;5.236;2023-02-23T06:54:10;101258.0;;;9.02;100.0
48892;BME280;50130;52.150;5.236;2023-02-23T06:57:23;101262.0;;;9.0;100.0
48892;BME280;50130;52.150;5.236;2023-02-23T06:58:59;101258.0;;;9.06;100.0
48892;BME280;50130;52.150;5.236;2023-02-23T07:00:35;101258.0;;;9.05;100.0
48892;BME280;50130;52.150;5.236;2023-02-23T07:03:48;101259.0;;;9.23;100.0
48892;BME280;50130;52.150;5.236;2023-02-23T07:05:24;101260.0;;;9.3;100.0
48892;BME280;50130;52.150;5.236;2023-02-23T07:07:01;101265.0;;;9.17;100.0
48892;BME280;50130;52.150;5.236;2023-02-23T07:10:14;101264.0;;;9.26;100.0
48892;BME280;50130;52.150;5.236;2023-02-23T07:11:50;101274.0;;;9.25;100.0
48892;BME280;50130;52.150;5.236;2023-02-23T07:13:27;101280.0;;;9.31;100.0
48892;BME280;50130;52.150;5.236;2023-02-23T07:15:03;101284.0;;;9.15;100.0
48892;BME280;50130;52.150;5.236;2023-02-23T07:18:16;101287.0;;;9.13;100.0
48892;BME280;50130;52.150;5.236;2023-02-23T07:19:53;101290.0;;;9.08;100.0
48892;BME280;50130;52.150;5.236;2023-02-23T07:21:31;101296.0;;;9.06;100.0
48892;BME280;50130;52.150;5.236;2023-02-23T07:24:45;101294.0;;;9.05;100.0
48892;BME280;50130;52.150;5.236;2023-02-23T07:26:22;101300.0;;;9.1;100.0
48892;BME280;50130;52.150;5.236;2023-02-23T07:27:59;101305.0;;;9.21;100.0
48892;BME280;50130;52.150;5.236;2023-02-23T07:31:12;101306.0;;;9.18;100.0
48892;BME280;50130;52.150;5.236;2023-02-23T07:32:50;101305.0;;;9.17;100.0
48892;BME280;50130;52.150;5.236;2023-02-23T07:34:27;101310.0;;;9.26;100.0
48892;BME280;50130;52.150;5.236;2023-02-23T07:36:03;101315.0;;;9.39;100.0
48892;BME280;50130;52.150;5.236;2023-02-23T07:39:17;101318.0;;;9.56;100.0
48892;BME280;50130;52.150;5.236;2023-02-23T07:40:54;101320.0;;;9.55;100.0
48892;BME280;50130;52.150;5.236;2023-02-23T07:42:30;101323.0;;;9.47;100.0
48892;BME280;50130;52.150;5.236;2023-02-23T07:45:42;101324.0;;;9.43;100.0
48892;BME280;50130;52.150;5.236;2023-02-23T07:47:19;101316.0;;;9.61;100.0
48892;BME280;50130;52.150;5.236;2023-02-23T07:48:55;101326.0;;;9.48;100.0
48892;BME280;50130;52.150;5.236;2023-02-23T07:52:08;101326.0;;;9.53;100.0
48892;BME280;50130;52.150;5.236;2023-02-23T07:53:45;101328.0;;;9.57;100.0
48892;BME280;50130;52.150;5.236;2023-02-23T07:55:21;101332.0;;;9.71;100.0
48892;BME280;50130;52.150;5.236;2023-02-23T07:56:58;101334.0;;;9.48;100.0
48892;BME280;50130;52.150;5.236;2023-02-23T08:00:13;101338.0;;;9.4;100.0
48892;BME280;50130;52.150;5.236;2023-02-23T08:01:50;101336.0;;;9.53;100.0
48892;BME280;50130;52.150;5.236;2023-02-23T08:03:27;101339.0;;;9.58;100.0
48892;BME280;50130;52.150;5.236;2023-02-23T08:06:41;101339.0;;;9.43;100.0
48892;BME280;50130;52.150;5.236;2023-02-23T08:08:17;101338.0;;;9.69;100.0
48892;BME280;50130;52.150;5.236;2023-02-23T08:09:53;101341.0;;;9.8;100.0
48892;BME280;50130;52.150;5.236;2023-02-23T08:13:07;101335.0;;;9.8;100.0
48892;BME280;50130;52.150;5.236;2023-02-23T08:14:43;101344.0;;;9.64;100.0
48892;BME280;50130;52.150;5.236;2023-02-23T08:16:19;101351.0;;;9.64;100.0
48892;BME280;50130;52.150;5.236;2023-02-23T08:17:55;101356.0;;;9.71;100.0
48892;BME280;50130;52.150;5.236;2023-02-23T08:21:10;101358.0;;;9.73;100.0
48892;BME280;50130;52.150;5.236;2023-02-23T08:22:46;101360.0;;;9.85;100.0
48892;BME280;50130;52.150;5.236;2023-02-23T08:24:22;101360.0;;;9.89;100.0
48892;BME280;50130;52.150;5.236;2023-02-23T08:27:37;101365.0;;;9.91;100.0
48892;BME280;50130;52.150;5.236;2023-02-23T08:29:15;101372.0;;;9.85;100.0
48892;BME280;50130;52.150;5.236;2023-02-23T08:30:51;101370.0;;;9.81;100.0
48892;BME280;50130;52.150;5.236;2023-02-23T08:32:31;101370.0;;;9.72;100.0
48892;BME280;50130;52.150;5.236;2023-02-23T08:35:45;101373.0;;;9.65;100.0
48892;BME280;50130;52.150;5.236;2023-02-23T08:37:22;101370.0;;;9.67;100.0
48892;BME280;50130;52.150;5.236;2023-02-23T08:38:59;101372.0;;;9.66;100.0
48892;BME280;50130;52.150;5.236;2023-02-23T08:42:13;101376.0;;;9.56;100.0
48892;BME280;50130;52.150;5.236;2023-02-23T08:43:49;101376.0;;;9.64;100.0
48892;BME280;50130;52.150;5.236;2023-02-23T08:45:28;101373.0;;;9.59;100.0
48892;BME280;50130;52.150;5.236;2023-02-23T08:48:41;101376.0;;;9.6;100.0
48892;BME280;50130;52.150;5.236;2023-02-23T08:50:17;101380.0;;;9.74;100.0
48892;BME280;50130;52.150;5.236;2023-02-23T08:51:53;101380.0;;;9.91;100.0
48892;BME280;50130;52.150;5.236;2023-02-23T08:53:30;101380.0;;;9.74;100.0
48892;BME280;50130;52.150;5.236;2023-02-23T08:56:43;101384.0;;;9.68;100.0
48892;BME280;50130;52.150;5.236;2023-02-23T08:58:20;101384.0;;;9.81;100.0
48892;BME280;50130;52.150;5.236;2023-02-23T08:59:57;101381.0;;;10.01;100.0
48892;BME280;50130;52.150;5.236;2023-02-23T09:03:09;101387.0;;;9.98;100.0
48892;BME280;50130;52.150;5.236;2023-02-23T09:04:45;101391.0;;;10.06;100.0
48892;BME280;50130;52.150;5.236;2023-02-23T09:06:23;101394.0;;;10.27;100.0
48892;BME280;50130;52.150;5.236;2023-02-23T09:08:01;101399.0;;;10.25;99.73
48892;BME280;50130;52.150;5.236;2023-02-23T09:11:13;101394.0;;;10.13;100.0
48892;BME280;50130;52.150;5.236;2023-02-23T09:12:49;101405.0;;;10.03;100.0
48892;BME280;50130;52.150;5.236;2023-02-23T09:14:26;101407.0;;;10.05;100.0
48892;BME280;50130;52.150;5.236;2023-02-23T09:17:44;101408.0;;;10.06;100.0
48892;BME280;50130;52.150;5.236;2023-02-23T09:19:20;101412.0;;;10.09;100.0
48892;BME280;50130;52.150;5.236;2023-02-23T09:20:57;101412.0;;;10.11;100.0
48892;BME280;50130;52.150;5.236;2023-02-23T09:24:11;101412.0;;;10.02;100.0
48892;BME280;50130;52.150;5.236;2023-02-23T09:25:47;101411.0;;;10.1;100.0
48892;BME280;50130;52.150;5.236;2023-02-23T09:27:23;101410.0;;;10.1;100.0
48892;BME280;50130;52.150;5.236;2023-02-23T09:29:00;101412.0;;;10.16;100.0
48892;BME280;50130;52.150;5.236;2023-02-23T09:32:15;101414.0;;;10.29;100.0
48892;BME280;50130;52.150;5.236;2023-02-23T09:33:52;101415.0;;;10.26;100.0
48892;BME280;50130;52.150;5.236;2023-02-23T09:35:29;101418.0;;;10.3;100.0
48892;BME280;50130;52.150;5.236;2023-02-23T09:38:41;101421.0;;;10.36;99.27
48892;BME280;50130;52.150;5.236;2023-02-23T09:40:22;101426.0;;;10.37;99.53
48892;BME280;50130;52.150;5.236;2023-02-23T09:42:06;101425.0;;;10.28;99.39
48892;BME280;50130;52.150;5.236;2023-02-23T09:43:56;101426.0;;;10.29;99.09
48892;BME280;50130;52.150;5.236;2023-02-23T09:47:28;101424.0;;;10.19;99.21
48892;BME280;50130;52.150;5.236;2023-02-23T09:49:11;101426.0;;;10.17;99.13
48892;BME280;50130;52.150;5.236;2023-02-23T09:50:53;101423.0;;;10.05;100.0
48892;BME280;50130;52.150;5.236;2023-02-23T09:52:35;101425.0;;;10.06;99.45
48892;BME280;50130;52.150;5.236;2023-02-23T09:54:16;101426.0;;;10.06;100.0
48892;BME280;50130;52.150;5.236;2023-02-23T09:57:36;101426.0;;;9.98;100.0
48892;BME280;50130;52.150;5.236;2023-02-23T09:59:17;101422.0;;;9.92;99.95
48892;BME280;50130;52.150;5.236;2023-02-23T10:01:07;101422.0;;;9.81;100.0
48892;BME280;50130;52.150;5.236;2023-02-23T10:03:57;101421.0;;;9.85;100.0
48892;BME280;50130;52.150;5.236;2023-02-23T10:05:39;101425.0;;;9.81;100.0
48892;BME280;50130;52.150;5.236;2023-02-23T10:07:23;101430.0;;;9.83;100.0
48892;BME280;50130;52.150;5.236;2023-02-23T10:09:11;101434.0;;;10.06;100.0
48892;BME280;50130;52.150;5.236;2023-02-23T10:11:01;101437.0;;;10.31;100.0
48892;BME280;50130;52.150;5.236;2023-02-23T10:14:46;101434.0;;;10.3;100.0
48892;BME280;50130;52.150;5.236;2023-02-23T10:16:42;101438.0;;;10.22;100.0
48892;BME280;50130;52.150;5.236;2023-02-23T10:18:36;101436.0;;;10.22;100.0
48892;BME280;50130;52.150;5.236;2023-02-23T10:20:21;101435.0;;;10.41;100.0
48892;BME280;50130;52.150;5.236;2023-02-23T10:22:03;101436.0;;;10.35;99.56
48892;BME280;50130;52.150;5.236;2023-02-23T10:23:45;101432.0;;;10.23;99.8
48892;BME280;50130;52.150;5.236;2023-02-23T10:25:27;101431.0;;;10.36;99.64
48892;BME280;50130;52.150;5.236;2023-02-23T10:28:49;101443.0;;;10.27;99.66
48892;BME280;50130;52.150;5.236;2023-02-23T10:30:32;101449.0;;;10.3;99.64
48892;BME280;50130;52.150;5.236;2023-02-23T10:32:15;101455.0;;;10.31;100.0
48892;BME280;50130;52.150;5.236;2023-02-23T10:33:57;101455.0;;;10.49;99.25
48892;BME280;50130;52.150;5.236;2023-02-23T10:37:15;101455.0;;;10.51;98.29
48892;BME280;50130;52.150;5.236;2023-02-23T10:38:51;101449.0;;;10.54;97.96
48892;BME280;50130;52.150;5.236;2023-02-23T10:40:31;101460.0;;;10.36;98.29
48892;BME280;50130;52.150;5.236;2023-02-23T10:42:14;101455.0;;;10.41;98.28
48892;BME280;50130;52.150;5.236;2023-02-23T10:45:29;101458.0;;;10.41;97.49
48892;BME280;50130;52.150;5.236;2023-02-23T10:47:13;101463.0;;;10.39;98.38
48892;BME280;50130;52.150;5.236;2023-02-23T10:48:52;101462.0;;;10.36;98.58
48892;BME280;50130;52.150;5.236;2023-02-23T10:52:15;101464.0;;;10.44;97.78
48892;BME280;50130;52.150;5.236;2023-02-23T10:54:33;101457.0;;;10.46;97.71
48892;BME280;50130;52.150;5.236;2023-02-23T10:56:12;101465.0;;;10.51;98.3
48892;BME280;50130;52.150;5.236;2023-02-23T10:58:00;101465.0;;;10.48;97.61
48892;BME280;50130;52.150;5.236;2023-02-23T10:59:38;101464.0;;;10.48;97.44
48892;BME280;50130;52.150;5.236;2023-02-23T11:01:38;101465.0;;;10.37;97.11
48892;BME280;50130;52.150;5.236;2023-02-23T11:03:23;101465.0;;;10.31;96.83
48892;BME280;50130;52.150;5.236;2023-02-23T11:06:42;101459.0;;;10.33;98.04
48892;BME280;50130;52.150;5.236;2023-02-23T11:08:23;101458.0;;;10.34;97.05
48892;BME280;50130;52.150;5.236;2023-02-23T11:10:24;101450.0;;;10.4;97.78
48892;BME280;50130;52.150;5.236;2023-02-23T11:12:03;101452.0;;;10.49;96.85
48892;BME280;50130;52.150;5.236;2023-02-23T11:13:55;101453.0;;;10.48;97.16
48892;BME280;50130;52.150;5.236;2023-02-23T11:17:23;101453.0;;;10.51;96.46
48892;BME280;50130;52.150;5.236;2023-02-23T11:19:06;101459.0;;;10.62;95.83
48892;BME280;50130;52.150;5.236;2023-02-23T11:20:54;101456.0;;;10.43;96.18
48892;BME280;50130;52.150;5.236;2023-02-23T11:22:34;101464.0;;;10.6;95.17
48892;BME280;50130;52.150;5.236;2023-02-23T11:24:17;101470.0;;;10.48;94.73
48892;BME280;50130;52.150;5.236;2023-02-23T11:27:45;101463.0;;;10.53;94.27
48892;BME280;50130;52.150;5.236;2023-02-23T11:29:29;101472.0;;;10.57;95.13
48892;BME280;50130;52.150;5.236;2023-02-23T11:31:13;101468.0;;;10.54;95.13
48892;BME280;50130;52.150;5.236;2023-02-23T11:32:53;101474.0;;;10.43;95.66
48892;BME280;50130;52.150;5.236;2023-02-23T11:34:33;101477.0;;;10.42;96.21
48892;BME280;50130;52.150;5.236;2023-02-23T11:37:53;101482.0;;;10.45;95.63
48892;BME280;50130;52.150;5.236;2023-02-23T11:39:29;101480.0;;;10.37;95.65
48892;BME280;50130;52.150;5.236;2023-02-23T11:41:18;101480.0;;;10.3;95.71
48892;BME280;50130;52.150;5.236;2023-02-23T11:43:06;101477.0;;;10.25;94.89
48892;BME280;50130;52.150;5.236;2023-02-23T11:46:27;101476.0;;;10.26;95.35
48892;BME280;50130;52.150;5.236;2023-02-23T11:48:04;101473.0;;;10.32;95.26
48892;BME280;50130;52.150;5.236;2023-02-23T11:49:43;101475.0;;;10.37;95.57
48892;BME280;50130;52.150;5.236;2023-02-23T11:51:24;101473.0;;;10.11;95.61
48892;BME280;50130;52.150;5.236;2023-02-23T11:54:48;101473.0;;;10.17;95.5
48892;BME280;50130;52.150;5.236;2023-02-23T11:56:28;101476.0;;;10.28;95.82
48892;BME280;50130;52.150;5.236;2023-02-23T11:58:17;101474.0;;;10.23;96.07
48892;BME280;50130;52.150;5.236;2023-02-23T11:59:57;101474.0;;;10.3;95.75
48892;BME280;50130;52.150;5.236;2023-02-23T12:03:20;101469.0;;;10.19;96.84
48892;BME280;50130;52.150;5.236;2023-02-23T12:05:04;101465.0;;;10.16;97.04
48892;BME280;50130;52.150;5.236;2023-02-23T12:06:44;101471.0;;;10.3;96.63
48892;BME280;50130;52.150;5.236;2023-02-23T12:08:29;101473.0;;;10.28;96.16
48892;BME280;50130;52.150;5.236;2023-02-23T12:10:13;101471.0;;;10.25;94.72
48892;BME280;50130;52.150;5.236;2023-02-23T12:13:41;101468.0;;;10.35;94.54
48892;BME280;50130;52.150;5.236;2023-02-23T12:15:27;101467.0;;;10.31;95.75
48892;BME280;50130;52.150;5.236;2023-02-23T12:17:13;101465.0;;;10.32;94.76
48892;BME280;50130;52.150;5.236;2023-02-23T12:18:54;101461.0;;;10.52;94.35
48892;BME280;50130;52.150;5.236;2023-02-23T12:20:37;101466.0;;;10.49;93.04
48892;BME280;50130;52.150;5.236;2023-02-23T12:24:11;101474.0;;;10.42;92.6
48892;BME280;50130;52.150;5.236;2023-02-23T12:26:08;101472.0;;;10.34;92.69
48892;BME280;50130;52.150;5.236;2023-02-23T12:27:50;101469.0;;;10.3;91.74
48892;BME280;50130;52.150;5.236;2023-02-23T12:29:35;101461.0;;;10.47;91.84
48892;BME280;50130;52.150;5.236;2023-02-23T12:31:21;101462.0;;;10.54;92.68
48892;BME280;50130;52.150;5.236;2023-02-23T12:34:48;101457.0;;;10.62;91.2
48892;BME280;50130;52.150;5.236;2023-02-23T12:36:35;101465.0;;;10.62;91.76
48892;BME280;50130;52.150;5.236;2023-02-23T12:38:20;101467.0;;;10.51;90.87
48892;BME280;50130;52.150;5.236;2023-02-23T12:40:06;101472.0;;;10.59;91.2
48892;BME280;50130;52.150;5.236;2023-02-23T12:41:54;101474.0;;;10.6;89.4